sensor_id;sensor_type;location;lat;lon;timestamp;pressure;altitude;pressure_sealevel;temperature;humidity
44144;BME280;68165;51.920;4.492;2023-03-26T00:08:39;67197.03;;;12.07;100.00
44144;BME280;68165;51.920;4.492;2023-03-26T00:11:07;67198.13;;;12.08;100.00
44144;BME280;68165;51.920;4.492;2023-03-26T00:13:34;67192.72;;;12.06;100.00
44144;BME280;68165;51.920;4.492;2023-03-26T00:15:59;67186.97;;;11.98;100.00
44144;BME280;68165;51.920;4.492;2023-03-26T00:18:26;67191.44;;;12.02;100.00
44144;BME280;68165;51.920;4.492;2023-03-26T00:21:00;67193.09;;;12.04;100.00
44144;BME280;68165;51.920;4.492;2023-03-26T00:23:28;67183.78;;;11.98;100.00
44144;BME280;68165;51.920;4.492;2023-03-26T00:25:54;67181.38;;;11.93;100.00
44144;BME280;68165;51.920;4.492;2023-03-26T00:28:21;67180.44;;;11.95;100.00
44144;BME280;68165;51.920;4.492;2023-03-26T00:30:48;67180.81;;;11.93;100.00
44144;BME280;68165;51.920;4.492;2023-03-26T00:33:14;67175.41;;;11.90;100.00
44144;BME280;68165;51.920;4.492;2023-03-26T00:35:42;67179.53;;;11.89;100.00
44144;BME280;68165;51.920;4.492;2023-03-26T02:06:21;67151.78;;;11.66;100.00
44144;BME280;68165;51.920;4.492;2023-03-26T02:08:52;67154.94;;;11.67;100.00
44144;BME280;68165;51.920;4.492;2023-03-26T02:11:21;67148.59;;;11.66;100.00
44144;BME280;68165;51.920;4.492;2023-03-26T02:13:46;67144.66;;;11.62;100.00
44144;BME280;68165;51.920;4.492;2023-03-26T02:16:14;67146.34;;;11.64;100.00
44144;BME280;68165;51.920;4.492;2023-03-26T02:18:42;67146.91;;;11.64;100.00
44144;BME280;68165;51.920;4.492;2023-03-26T02:21:11;67146.91;;;11.64;100.00
44144;BME280;68165;51.920;4.492;2023-03-26T02:23:39;67141.16;;;11.57;100.00
44144;BME280;68165;51.920;4.492;2023-03-26T02:26:06;67135.56;;;11.52;100.00
44144;BME280;68165;51.920;4.492;2023-03-26T02:28:32;67137.25;;;11.53;100.00
44144;BME280;68165;51.920;4.492;2023-03-26T02:30:57;67138.38;;;11.54;100.00
44144;BME280;68165;51.920;4.492;2023-03-26T02:33:29;67135.75;;;11.54;100.00
44144;BME280;68165;51.920;4.492;2023-03-26T02:35:56;67130.00;;;11.46;100.00
44144;BME280;68165;51.920;4.492;2023-03-26T02:38:27;67119.72;;;11.42;100.00
44144;BME280;68165;51.920;4.492;2023-03-26T02:40:54;67107.84;;;11.29;100.00
44144;BME280;68165;51.920;4.492;2023-03-26T02:43:21;67098.34;;;11.20;100.00
44144;BME280;68165;51.920;4.492;2023-03-26T02:45:46;67089.97;;;11.13;100.00
44144;BME280;68165;51.920;4.492;2023-03-26T02:48:12;67090.75;;;11.09;100.00
44144;BME280;68165;51.920;4.492;2023-03-26T03:21:41;67063.19;;;10.88;100.00
44144;BME280;68165;51.920;4.492;2023-03-26T03:34:27;67048.13;;;10.75;100.00
44144;BME280;68165;51.920;4.492;2023-03-26T03:36:53;67045.16;;;10.70;100.00
44144;BME280;68165;51.920;4.492;2023-03-26T03:39:18;67056.88;;;10.80;100.00
44144;BME280;68165;51.920;4.492;2023-03-26T03:41:43;67055.38;;;10.81;100.00
44144;BME280;68165;51.920;4.492;2023-03-26T03:44:09;67052.03;;;10.78;100.00
44144;BME280;68165;51.920;4.492;2023-03-26T03:46:34;67057.63;;;10.83;100.00
44144;BME280;68165;51.920;4.492;2023-03-26T03:49:00;67054.81;;;10.81;100.00
44144;BME280;68165;51.920;4.492;2023-03-26T03:51:25;67059.84;;;10.85;100.00
44144;BME280;68165;51.920;4.492;2023-03-26T03:53:51;67063.03;;;10.86;100.00
44144;BME280;68165;51.920;4.492;2023-03-26T03:56:16;67056.13;;;10.84;100.00
44144;BME280;68165;51.920;4.492;2023-03-26T03:58:44;67066.19;;;10.86;100.00
44144;BME280;68165;51.920;4.492;2023-03-26T04:01:10;67073.78;;;10.98;100.00
44144;BME280;68165;51.920;4.492;2023-03-26T04:03:38;67078.47;;;10.97;100.00
44144;BME280;68165;51.920;4.492;2023-03-26T04:06:05;67075.13;;;10.94;100.00
44144;BME280;68165;51.920;4.492;2023-03-26T04:08:31;67067.84;;;10.95;100.00
44144;BME280;68165;51.920;4.492;2023-03-26T04:10:57;67079.22;;;11.00;100.00
44144;BME280;68165;51.920;4.492;2023-03-26T04:13:22;67084.41;;;11.08;100.00
44144;BME280;68165;51.920;4.492;2023-03-26T04:15:48;67070.13;;;10.90;100.00
44144;BME280;68165;51.920;4.492;2023-03-26T04:18:13;67076.41;;;10.98;100.00
44144;BME280;68165;51.920;4.492;2023-03-26T04:20:41;67056.28;;;10.87;100.00
44144;BME280;68165;51.920;4.492;2023-03-26T04:23:14;67063.56;;;10.86;100.00
44144;BME280;68165;51.920;4.492;2023-03-26T04:25:45;67075.28;;;10.97;100.00
44144;BME280;68165;51.920;4.492;2023-03-26T04:28:26;67072.84;;;10.99;100.00
44144;BME280;68165;51.920;4.492;2023-03-26T04:30:54;67065.81;;;10.88;100.00
44144;BME280;68165;51.920;4.492;2023-03-26T04:33:19;67047.56;;;10.74;100.00
44144;BME280;68165;51.920;4.492;2023-03-26T04:35:46;67038.47;;;10.63;100.00
44144;BME280;68165;51.920;4.492;2023-03-26T04:38:14;67030.84;;;10.59;100.00
44144;BME280;68165;51.920;4.492;2023-03-26T04:40:42;67026.94;;;10.55;100.00
44144;BME280;68165;51.920;4.492;2023-03-26T04:45:46;67006.31;;;10.37;100.00
44144;BME280;68165;51.920;4.492;2023-03-26T05:08:54;66980.06;;;10.13;100.00
44144;BME280;68165;51.920;4.492;2023-03-26T05:11:19;66974.88;;;10.06;100.00
44144;BME280;68165;51.920;4.492;2023-03-26T05:13:45;66974.16;;;10.03;100.00
44144;BME280;68165;51.920;4.492;2023-03-26T05:21:20;66968.56;;;9.98;100.00
44144;BME280;68165;51.920;4.492;2023-03-26T05:23:46;66962.78;;;9.97;100.00
44144;BME280;68165;51.920;4.492;2023-03-26T05:28:47;66964.84;;;9.97;100.00
44144;BME280;68165;51.920;4.492;2023-03-26T05:38:57;66948.84;;;9.84;100.00
44144;BME280;68165;51.920;4.492;2023-03-26T05:41:22;66963.53;;;10.00;100.00
44144;BME280;68165;51.920;4.492;2023-03-26T05:43:48;66970.59;;;10.04;100.00
44144;BME280;68165;51.920;4.492;2023-03-26T05:46:14;66975.59;;;10.09;100.00
44144;BME280;68165;51.920;4.492;2023-03-26T05:48:41;66992.38;;;10.24;100.00
44144;BME280;68165;51.920;4.492;2023-03-26T05:51:07;66977.28;;;10.10;100.00
44144;BME280;68165;51.920;4.492;2023-03-26T05:53:33;66987.53;;;10.15;100.00
44144;BME280;68165;51.920;4.492;2023-03-26T06:16:38;67021.00;;;10.45;100.00
44144;BME280;68165;51.920;4.492;2023-03-26T06:19:03;67018.56;;;10.48;100.00
44144;BME280;68165;51.920;4.492;2023-03-26T06:21:28;67019.50;;;10.46;100.00
44144;BME280;68165;51.920;4.492;2023-03-26T06:26:29;67002.94;;;10.34;100.00
44144;BME280;68165;51.920;4.492;2023-03-26T06:28:54;66998.50;;;10.30;100.00
44144;BME280;68165;51.920;4.492;2023-03-26T06:31:20;66997.38;;;10.29;100.00
44144;BME280;68165;51.920;4.492;2023-03-26T06:36:20;66975.44;;;10.06;100.00
44144;BME280;68165;51.920;4.492;2023-03-26T06:38:46;66987.88;;;10.20;100.00
44144;BME280;68165;51.920;4.492;2023-03-26T06:51:32;66953.13;;;9.86;100.00
44144;BME280;68165;51.920;4.492;2023-03-26T06:53:58;66957.22;;;9.92;100.00
44144;BME280;68165;51.920;4.492;2023-03-26T06:56:23;66951.63;;;9.87;100.00
44144;BME280;68165;51.920;4.492;2023-03-26T06:58:49;66959.66;;;9.90;100.00
44144;BME280;68165;51.920;4.492;2023-03-26T07:01:15;66962.06;;;9.94;100.00
44144;BME280;68165;51.920;4.492;2023-03-26T07:03:40;66966.13;;;10.00;100.00
44144;BME280;68165;51.920;4.492;2023-03-26T07:21:37;66991.25;;;10.23;100.00
44144;BME280;68165;51.920;4.492;2023-03-26T07:24:03;66976.53;;;10.07;100.00
44144;BME280;68165;51.920;4.492;2023-03-26T07:26:33;66981.41;;;10.09;100.00
44144;BME280;68165;51.920;4.492;2023-03-26T07:29:36;66980.06;;;10.13;100.00
44144;BME280;68165;51.920;4.492;2023-03-26T07:32:14;66981.41;;;10.09;100.00
44144;BME280;68165;51.920;4.492;2023-03-26T07:34:52;66971.31;;;10.07;100.00
44144;BME280;68165;51.920;4.492;2023-03-26T09:58:06;67077.91;;;10.97;100.00
44144;BME280;68165;51.920;4.492;2023-03-26T10:05:57;67066.19;;;10.86;100.00
44144;BME280;68165;51.920;4.492;2023-03-26T10:14:41;67097.22;;;11.19;100.00
44144;BME280;68165;51.920;4.492;2023-03-26T11:39:04;67035.84;;;10.63;100.00
44144;BME280;68165;51.920;4.492;2023-03-26T11:46:44;67046.28;;;10.71;100.00
44144;BME280;68165;51.920;4.492;2023-03-26T11:51:47;67038.09;;;10.66;100.00
44144;BME280;68165;51.920;4.492;2023-03-26T11:54:14;67027.88;;;10.54;100.00
44144;BME280;68165;51.920;4.492;2023-03-26T11:56:52;67032.34;;;10.58;100.00
44144;BME280;68165;51.920;4.492;2023-03-26T11:59:28;67026.44;;;10.48;100.00
44144;BME280;68165;51.920;4.492;2023-03-26T12:07:29;67015.22;;;10.45;100.00
44144;BME280;68165;51.920;4.492;2023-03-26T12:10:00;67005.56;;;10.34;100.00
44144;BME280;68165;51.920;4.492;2023-03-26T12:12:32;67018.78;;;10.43;100.00
44144;BME280;68165;51.920;4.492;2023-03-26T12:14:58;67012.66;;;10.38;100.00
44144;BME280;68165;51.920;4.492;2023-03-26T12:35:33;66986.97;;;10.14;100.00
44144;BME280;68165;51.920;4.492;2023-03-26T12:41:05;67048.34;;;10.70;100.00
44144;BME280;68165;51.920;4.492;2023-03-26T12:43:52;67070.84;;;10.93;100.00
44144;BME280;68165;51.920;4.492;2023-03-26T12:48:51;67068.78;;;10.93;100.00
44144;BME280;68165;51.920;4.492;2023-03-26T13:32:54;67246.66;;;12.59;96.76
44144;BME280;68165;51.920;4.492;2023-03-26T14:06:39;67325.97;;;13.22;86.11
44144;BME280;68165;51.920;4.492;2023-03-26T14:14:38;67339.16;;;13.38;85.80
44144;BME280;68165;51.920;4.492;2023-03-26T15:07:40;67331.31;;;13.31;77.22
44144;BME280;68165;51.920;4.492;2023-03-26T15:10:10;67329.25;;;13.32;77.24
44144;BME280;68165;51.920;4.492;2023-03-26T15:18:49;67287.69;;;12.92;75.97
44144;BME280;68165;51.920;4.492;2023-03-26T15:41:55;67228.53;;;12.31;75.52
44144;BME280;68165;51.920;4.492;2023-03-26T15:44:27;67234.84;;;12.39;76.16
44144;BME280;68165;51.920;4.492;2023-03-26T15:52:41;67213.22;;;12.22;73.99
44144;BME280;68165;51.920;4.492;2023-03-26T16:00:25;67188.63;;;12.00;71.78
44144;BME280;68165;51.920;4.492;2023-03-26T16:06:08;67193.84;;;12.07;73.28
44144;BME280;68165;51.920;4.492;2023-03-26T16:09:43;67203.34;;;12.15;73.30
44144;BME280;68165;51.920;4.492;2023-03-26T16:12:26;67197.56;;;12.08;71.80
44144;BME280;68165;51.920;4.492;2023-03-26T16:26:15;67161.84;;;11.75;68.75
44144;BME280;68165;51.920;4.492;2023-03-26T16:33:56;67155.09;;;11.69;68.62
44144;BME280;68165;51.920;4.492;2023-03-26T16:36:37;67147.28;;;11.62;67.93
44144;BME280;68165;51.920;4.492;2023-03-26T16:44:27;67146.19;;;11.61;69.40
44144;BME280;68165;51.920;4.492;2023-03-26T16:58:46;67065.97;;;10.91;67.30
44144;BME280;68165;51.920;4.492;2023-03-26T17:01:30;67047.19;;;10.76;67.27
44144;BME280;68165;51.920;4.492;2023-03-26T17:04:07;67047.41;;;10.72;67.78
44144;BME280;68165;51.920;4.492;2023-03-26T17:32:12;66991.84;;;10.16;68.70
44144;BME280;68165;51.920;4.492;2023-03-26T17:42:31;66966.53;;;9.98;68.06
44144;BME280;68165;51.920;4.492;2023-03-26T17:45:15;66976.94;;;10.05;67.62
44144;BME280;68165;51.920;4.492;2023-03-26T17:47:49;66968.41;;;9.95;67.09
44144;BME280;68165;51.920;4.492;2023-03-26T17:50:23;66962.78;;;9.97;67.39
44144;BME280;68165;51.920;4.492;2023-03-26T17:53:00;66964.28;;;9.96;66.19
44144;BME280;68165;51.920;4.492;2023-03-26T17:55:30;66958.88;;;9.94;66.13
44144;BME280;68165;51.920;4.492;2023-03-26T17:58:05;66973.03;;;10.02;66.74
44144;BME280;68165;51.920;4.492;2023-03-26T18:02:59;66953.84;;;9.89;66.76
44144;BME280;68165;51.920;4.492;2023-03-26T18:05:28;66962.44;;;9.92;67.18
44144;BME280;68165;51.920;4.492;2023-03-26T18:18:57;66955.19;;;9.86;66.73
44144;BME280;68165;51.920;4.492;2023-03-26T18:21:33;66960.22;;;9.90;67.26
44144;BME280;68165;51.920;4.492;2023-03-26T18:24:01;66949.97;;;9.86;67.28
44144;BME280;68165;51.920;4.492;2023-03-26T18:26:36;66953.53;;;9.84;68.13
44144;BME280;68165;51.920;4.492;2023-03-26T18:29:27;66942.00;;;9.76;68.18
44144;BME280;68165;51.920;4.492;2023-03-26T18:34:45;66915.81;;;9.52;69.19
44144;BME280;68165;51.920;4.492;2023-03-26T18:37:31;66928.06;;;9.63;69.22
44144;BME280;68165;51.920;4.492;2023-03-26T18:40:06;66932.88;;;9.65;69.31
44144;BME280;68165;51.920;4.492;2023-03-26T18:42:39;66914.84;;;9.54;69.36
44144;BME280;68165;51.920;4.492;2023-03-26T18:45:08;66926.00;;;9.64;70.17
44144;BME280;68165;51.920;4.492;2023-03-26T18:47:40;66937.53;;;9.72;70.87
44144;BME280;68165;51.920;4.492;2023-03-26T18:50:25;66939.03;;;9.71;71.47
44144;BME280;68165;51.920;4.492;2023-03-26T18:52:57;66942.19;;;9.71;71.55
44144;BME280;68165;51.920;4.492;2023-03-26T18:55:28;66939.94;;;9.76;70.67
44144;BME280;68165;51.920;4.492;2023-03-26T18:57:55;66933.44;;;9.66;69.91
44144;BME280;68165;51.920;4.492;2023-03-26T19:00:22;66922.50;;;9.58;69.38
44144;BME280;68165;51.920;4.492;2023-03-26T19:03:00;66921.38;;;9.57;69.04
44144;BME280;68165;51.920;4.492;2023-03-26T19:05:30;66913.00;;;9.50;68.33
44144;BME280;68165;51.920;4.492;2023-03-26T19:08:00;66918.19;;;9.57;68.66
44144;BME280;68165;51.920;4.492;2023-03-26T19:10:28;66914.84;;;9.54;68.22
44144;BME280;68165;51.920;4.492;2023-03-26T19:13:04;66902.44;;;9.40;68.05
44144;BME280;68165;51.920;4.492;2023-03-26T19:15:31;66903.94;;;9.39;67.81
44144;BME280;68165;51.920;4.492;2023-03-26T19:18:00;66898.34;;;9.34;67.99
44144;BME280;68165;51.920;4.492;2023-03-26T19:20:45;66889.06;;;9.28;68.16
44144;BME280;68165;51.920;4.492;2023-03-26T19:23:15;66876.41;;;9.19;68.38
44144;BME280;68165;51.920;4.492;2023-03-26T19:25:53;66879.00;;;9.19;68.87
44144;BME280;68165;51.920;4.492;2023-03-26T19:28:23;66878.84;;;9.16;69.38
44144;BME280;68165;51.920;4.492;2023-03-26T19:33:33;66866.94;;;9.10;69.76
44144;BME280;68165;51.920;4.492;2023-03-26T19:36:02;66865.47;;;9.04;70.13
44144;BME280;68165;51.920;4.492;2023-03-26T19:38:37;66857.84;;;8.99;69.19
44144;BME280;68165;51.920;4.492;2023-03-26T19:41:03;66847.59;;;8.95;68.88
44144;BME280;68165;51.920;4.492;2023-03-26T19:43:28;66845.78;;;8.91;68.16
44144;BME280;68165;51.920;4.492;2023-03-26T19:45:57;66848.38;;;8.91;68.86
44144;BME280;68165;51.920;4.492;2023-03-26T19:48:24;66837.97;;;8.84;68.67
44144;BME280;68165;51.920;4.492;2023-03-26T19:51:01;66846.53;;;8.87;68.55
44144;BME280;68165;51.920;4.492;2023-03-26T19:53:31;66838.91;;;8.82;68.69
44144;BME280;68165;51.920;4.492;2023-03-26T19:56:03;66837.25;;;8.81;68.64
44144;BME280;68165;51.920;4.492;2023-03-26T19:58:35;66824.59;;;8.72;68.95
44144;BME280;68165;51.920;4.492;2023-03-26T20:01:01;66823.88;;;8.69;69.39
44144;BME280;68165;51.920;4.492;2023-03-26T20:03:34;66816.97;;;8.67;69.17
44144;BME280;68165;51.920;4.492;2023-03-26T20:06:00;66823.88;;;8.69;68.44
44144;BME280;68165;51.920;4.492;2023-03-26T20:08:26;66819.97;;;8.65;68.93
44144;BME280;68165;51.920;4.492;2023-03-26T20:10:53;66816.09;;;8.62;68.84
44144;BME280;68165;51.920;4.492;2023-03-26T20:13:19;66818.31;;;8.64;68.96
44144;BME280;68165;51.920;4.492;2023-03-26T20:15:49;66818.47;;;8.66;69.64
44144;BME280;68165;51.920;4.492;2023-03-26T20:18:16;66817.75;;;8.63;69.14
44144;BME280;68165;51.920;4.492;2023-03-26T20:20:42;66804.75;;;8.56;69.55
44144;BME280;68165;51.920;4.492;2023-03-26T20:23:16;66801.59;;;8.48;70.24
44144;BME280;68165;51.920;4.492;2023-03-26T20:25:47;66802.72;;;8.49;70.04
44144;BME280;68165;51.920;4.492;2023-03-26T20:28:15;66794.75;;;8.40;70.52
44144;BME280;68165;51.920;4.492;2023-03-26T20:30:46;66785.63;;;8.36;70.87
44144;BME280;68165;51.920;4.492;2023-03-26T20:33:23;66799.75;;;8.44;71.04
44144;BME280;68165;51.920;4.492;2023-03-26T20:35:50;66789.34;;;8.37;70.93
44144;BME280;68165;51.920;4.492;2023-03-26T20:38:16;66778.75;;;8.28;71.42
44144;BME280;68165;51.920;4.492;2023-03-26T20:40:42;66780.81;;;8.27;71.41
44144;BME280;68165;51.920;4.492;2023-03-26T20:43:13;66779.31;;;8.28;72.33
44144;BME280;68165;51.920;4.492;2023-03-26T20:45:39;66806.78;;;8.55;71.70
44144;BME280;68165;51.920;4.492;2023-03-26T20:48:04;66816.09;;;8.62;71.57
44144;BME280;68165;51.920;4.492;2023-03-26T20:50:30;66817.75;;;8.63;71.77
44144;BME280;68165;51.920;4.492;2023-03-26T20:52:56;66811.97;;;8.63;71.58
44144;BME280;68165;51.920;4.492;2023-03-26T20:55:23;66824.63;;;8.65;71.42
44144;BME280;68165;51.920;4.492;2023-03-26T20:57:49;66829.09;;;8.69;71.47
44144;BME280;68165;51.920;4.492;2023-03-26T21:00:19;66830.00;;;8.74;71.81
44144;BME280;68165;51.920;4.492;2023-03-26T21:02:49;66844.31;;;8.85;71.82
44144;BME280;68165;51.920;4.492;2023-03-26T21:05:18;66846.53;;;8.87;71.69
44144;BME280;68165;51.920;4.492;2023-03-26T21:07:48;66850.06;;;8.92;71.64
44144;BME280;68165;51.920;4.492;2023-03-26T21:10:14;66852.44;;;8.97;71.53
44144;BME280;68165;51.920;4.492;2023-03-26T21:12:40;66856.34;;;9.00;71.34
44144;BME280;68165;51.920;4.492;2023-03-26T21:15:08;66862.88;;;9.04;71.39
44144;BME280;68165;51.920;4.492;2023-03-26T21:17:34;66864.72;;;9.08;71.12
44144;BME280;68165;51.920;4.492;2023-03-26T21:20:00;66866.94;;;9.10;71.50
44144;BME280;68165;51.920;4.492;2023-03-26T21:22:46;66870.28;;;9.13;71.14
44144;BME280;68165;51.920;4.492;2023-03-26T21:25:37;66875.69;;;9.16;70.75
44144;BME280;68165;51.920;4.492;2023-03-26T21:30:24;66870.28;;;9.13;70.71
44144;BME280;68165;51.920;4.492;2023-03-26T21:32:50;66864.72;;;9.08;70.57
44144;BME280;68165;51.920;4.492;2023-03-26T21:35:16;66866.38;;;9.10;70.81
44144;BME280;68165;51.920;4.492;2023-03-26T21:37:42;66871.06;;;9.09;70.85
44144;BME280;68165;51.920;4.492;2023-03-26T21:40:12;66875.13;;;9.15;70.18
44144;BME280;68165;51.920;4.492;2023-03-26T21:42:47;66878.44;;;9.18;71.08
44144;BME280;68165;51.920;4.492;2023-03-26T21:45:13;66873.63;;;9.16;71.32
44144;BME280;68165;51.920;4.492;2023-03-26T21:47:38;66866.38;;;9.10;72.04
44144;BME280;68165;51.920;4.492;2023-03-26T21:50:04;66859.31;;;9.06;71.75
44144;BME280;68165;51.920;4.492;2023-03-26T21:52:30;66862.47;;;9.06;71.39
44144;BME280;68165;51.920;4.492;2023-03-26T21:54:56;66865.09;;;9.06;71.46
44144;BME280;68165;51.920;4.492;2023-03-26T22:05:14;66869.16;;;9.12;72.42
44144;BME280;68165;51.920;4.492;2023-03-26T22:07:51;66869.16;;;9.12;72.66
44144;BME280;68165;51.920;4.492;2023-03-26T22:10:18;66867.69;;;9.06;73.16
44144;BME280;68165;51.920;4.492;2023-03-26T22:12:43;66853.22;;;8.93;73.70
44144;BME280;68165;51.920;4.492;2023-03-26T22:15:09;66822.75;;;8.68;75.71
44144;BME280;68165;51.920;4.492;2023-03-26T22:17:41;66788.78;;;8.37;77.49
44144;BME280;68165;51.920;4.492;2023-03-26T22:20:08;66773.03;;;8.20;79.51
44144;BME280;68165;51.920;4.492;2023-03-26T22:22:33;66761.34;;;8.09;80.08
44144;BME280;68165;51.920;4.492;2023-03-26T22:24:59;66755.22;;;8.04;80.84
44144;BME280;68165;51.920;4.492;2023-03-26T22:27:25;66747.56;;;7.99;81.29
44144;BME280;68165;51.920;4.492;2023-03-26T22:29:50;66750.53;;;8.04;81.43
44144;BME280;68165;51.920;4.492;2023-03-26T22:32:15;66759.28;;;8.10;81.32
44144;BME280;68165;51.920;4.492;2023-03-26T22:34:40;66766.69;;;8.19;81.11
44144;BME280;68165;51.920;4.492;2023-03-26T22:37:06;66776.16;;;8.28;80.75
44144;BME280;68165;51.920;4.492;2023-03-26T22:39:31;66784.72;;;8.31;80.81
44144;BME280;68165;51.920;4.492;2023-03-26T22:41:56;66779.50;;;8.31;80.62
44144;BME280;68165;51.920;4.492;2023-03-26T22:44:21;66785.47;;;8.34;80.33
44144;BME280;68165;51.920;4.492;2023-03-26T22:46:47;66787.88;;;8.38;80.64
44144;BME280;68165;51.920;4.492;2023-03-26T22:49:16;66794.75;;;8.40;80.98
44144;BME280;68165;51.920;4.492;2023-03-26T22:51:41;66800.47;;;8.47;81.33
44144;BME280;68165;51.920;4.492;2023-03-26T22:54:06;66802.72;;;8.49;81.44
44144;BME280;68165;51.920;4.492;2023-03-26T22:56:32;66807.16;;;8.53;81.11
44144;BME280;68165;51.920;4.492;2023-03-26T22:58:58;66807.16;;;8.53;80.85
44144;BME280;68165;51.920;4.492;2023-03-26T23:01:23;66804.56;;;8.53;81.25
44144;BME280;68165;51.920;4.492;2023-03-26T23:03:49;66805.13;;;8.54;81.36
44144;BME280;68165;51.920;4.492;2023-03-26T23:06:14;66809.78;;;8.53;81.49
44144;BME280;68165;51.920;4.492;2023-03-26T23:08:40;66799.16;;;8.51;81.65
44144;BME280;68165;51.920;4.492;2023-03-26T23:11:07;66801.59;;;8.48;81.68
44144;BME280;68165;51.920;4.492;2023-03-26T23:13:32;66802.72;;;8.49;81.80
44144;BME280;68165;51.920;4.492;2023-03-26T23:15:57;66801.59;;;8.48;81.79
44144;BME280;68165;51.920;4.492;2023-03-26T23:18:23;66804.94;;;8.51;81.91
44144;BME280;68165;51.920;4.492;2023-03-26T23:20:49;66804.56;;;8.53;82.25
44144;BME280;68165;51.920;4.492;2023-03-26T23:23:17;66804.00;;;8.53;82.64
44144;BME280;68165;51.920;4.492;2023-03-26T23:25:43;66799.72;;;8.51;82.62
44144;BME280;68165;51.920;4.492;2023-03-26T23:28:09;66802.53;;;8.47;82.63
44144;BME280;68165;51.920;4.492;2023-03-26T23:30:34;66796.59;;;8.44;82.63
44144;BME280;68165;51.920;4.492;2023-03-26T23:32:59;66787.88;;;8.38;83.15
44144;BME280;68165;51.920;4.492;2023-03-26T23:35:25;66786.00;;;8.34;83.12
44144;BME280;68165;51.920;4.492;2023-03-26T23:37:50;66777.81;;;8.29;83.34
44144;BME280;68165;51.920;4.492;2023-03-26T23:40:16;66772.25;;;8.24;83.53
44144;BME280;68165;51.920;4.492;2023-03-26T23:42:42;66764.44;;;8.17;83.67
44144;BME280;68165;51.920;4.492;2023-03-26T23:45:07;66758.88;;;8.12;83.86
44144;BME280;68165;51.920;4.492;2023-03-26T23:47:33;66756.88;;;8.05;84.00
44144;BME280;68165;51.920;4.492;2023-03-26T23:49:58;66747.56;;;7.99;84.60
44144;BME280;68165;51.920;4.492;2023-03-26T23:52:23;66739.97;;;7.95;84.84
44144;BME280;68165;51.920;4.492;2023-03-26T23:54:49;66739.81;;;7.92;84.98
44144;BME280;68165;51.920;4.492;2023-03-26T23:57:15;66742.41;;;7.92;85.17
44144;BME280;68165;51.920;4.492;2023-03-26T23:59:42;66743.13;;;7.95;85.39
